Cambridge, Canada
Current Conditions -  °F | °C
As of 3:00 PM on Thursday 23 Oct 2014 (Local Time) from CYKF Reporting Station
Clear Clear  
Wind Chill: 59°   Ceiling: Unl
Heat Index: 59°   Visibility: 9mi
Dew Point: 43°   Wind: 12mph
Humidity: 55%   Direction: 300°WNW
Pressure: 30.1"   Gusts: 17mph
Location:  43.38°N, 80.32°W
Report Text: CYKF 231900Z AUTO 30010G15KT 9SM CLR 15/06 A3010 RMK SLP197 DENSITY ALT 1100FT
Loading
Personal Weather Stations






























Interactive Weather Map
Tropical Storm Tracking
New forecast layout! Learn more

10-Day Weather Forecast

Advertisements
Track Severe Weather on mobile